Terminal Aerodrome Forecast
Issued by NWS Louisville, KY

Home | Current Version | Previous Version | Text Only | Print | Product List | Glossary On
Versions: 1 2 3 4 5 6 7 8 9 10 11 12 13 14 15 16
000
FTUS43 KLMK 051120
TAFLEX
TAF
KLEX 051120Z 0512/0612 31004KT P6SM VCSH BKN015
     FM051600 34008KT P6SM BKN025
     FM051800 33010KT P6SM VCSH BKN035
     FM060000 33005KT P6SM SCT045=

USA.gov is the U.S. government's official web portal to all federal, state and local government web resources and services.